Time;durP1;ratioP1;P1;durP2;ratioP2;P2;SDS_P1;SDS_P2;PMS_P1;PMS_P2;Temp;Humidity;BMP_temperature;BMP_pressure;BME280_temperature;BME280_humidity;BME280_pressure;Samples;Min_cycle;Max_cycle;Signal;HPM_P1;HPM_P2
2023/06/04 00:00:29;;;;;;;;;4.50;4.00;;;;;21.81;32.09;101550.83;112147;1263;19484;-39
2023/06/04 00:03:16;;;;;;;;;4.00;4.00;;;;;21.81;32.25;101551.75;111964;1247;20985;-39
2023/06/04 00:05:44;;;;;;;;;4.00;4.00;;;;;21.80;32.21;101553.80;112187;1263;19994;-39
2023/06/04 00:08:11;;;;;;;;;5.00;5.00;;;;;21.79;32.11;101550.45;111956;1247;20659;-39
2023/06/04 00:10:39;;;;;;;;;4.00;4.00;;;;;21.78;32.22;101551.66;112161;1263;19514;-39
2023/06/04 00:13:07;;;;;;;;;4.00;4.00;;;;;21.78;32.22;101548.58;111967;1263;20314;-40
2023/06/04 00:15:34;;;;;;;;;4.00;4.00;;;;;21.78;32.15;101546.73;112122;1247;19335;-39
2023/06/04 00:18:02;;;;;;;;;5.00;5.00;;;;;21.78;32.19;101545.30;111913;1256;18546;-39
2023/06/04 00:20:29;;;;;;;;;5.00;5.00;;;;;21.78;32.05;101542.58;112113;1247;21403;-39
2023/06/04 00:22:57;;;;;;;;;4.00;4.00;;;;;21.78;32.15;101544.76;111935;1264;19311;-40
2023/06/04 00:25:24;;;;;;;;;5.00;4.00;;;;;21.78;32.21;101541.38;112142;1247;18300;-39
2023/06/04 00:27:52;;;;;;;;;4.00;4.00;;;;;21.77;32.06;101543.08;111939;1263;19061;-37
2023/06/04 00:30:19;;;;;;;;;4.00;4.00;;;;;21.77;32.08;101547.21;112126;1247;20613;-39
2023/06/04 00:32:47;;;;;;;;;4.00;4.00;;;;;21.77;32.18;101544.75;111949;1263;18173;-39
2023/06/04 00:35:14;;;;;;;;;4.50;4.00;;;;;21.77;32.27;101543.66;112109;1247;18807;-39
2023/06/04 00:37:42;;;;;;;;;4.00;4.00;;;;;21.76;32.23;101540.61;111994;1263;19297;-40
2023/06/04 00:40:09;;;;;;;;;4.00;4.00;;;;;21.76;32.29;101540.24;112101;1263;19597;-39
2023/06/04 00:42:37;;;;;;;;;4.00;4.00;;;;;21.77;32.19;101533.84;111946;1263;20221;-40
2023/06/04 00:45:07;;;;;;;;;5.00;4.00;;;;;21.76;32.14;101537.90;112124;1247;19329;-40
2023/06/04 00:47:35;;;;;;;;;4.00;4.00;;;;;21.76;32.28;101538.09;112110;1247;19653;-45
2023/06/04 00:50:02;;;;;;;;;4.00;4.00;;;;;21.75;32.13;101536.54;111960;1263;18616;-39
2023/06/04 00:52:30;;;;;;;;;5.00;5.00;;;;;21.75;32.25;101533.89;112101;1247;20689;-40
2023/06/04 00:54:57;;;;;;;;;6.00;5.00;;;;;21.75;32.22;101537.15;112237;1247;19656;-40
2023/06/04 00:57:25;;;;;;;;;4.00;4.00;;;;;21.75;32.28;101535.89;111864;1263;315247;-40
2023/06/04 00:59:52;;;;;;;;;4.00;4.00;;;;;21.75;32.49;101536.23;112088;1247;19412;-40
2023/06/04 01:02:20;;;;;;;;;5.00;4.00;;;;;21.74;32.38;101534.47;112082;1247;19569;-40
2023/06/04 01:04:48;;;;;;;;;5.00;5.00;;;;;21.73;32.42;101533.65;112268;1263;18625;-41
2023/06/04 01:07:15;;;;;;;;;5.00;4.50;;;;;21.73;32.53;101532.24;112051;1263;20518;-39
2023/06/04 01:09:42;;;;;;;;;5.00;4.00;;;;;21.72;32.57;101531.02;112245;1256;18532;-42
2023/06/04 01:12:10;;;;;;;;;5.00;4.00;;;;;21.72;32.72;101527.30;112071;1256;18583;-39
2023/06/04 01:14:37;;;;;;;;;4.00;4.00;;;;;21.72;32.74;101529.66;112165;1247;20922;-40
2023/06/04 01:17:05;;;;;;;;;5.00;4.50;;;;;21.71;32.85;101529.76;112102;1263;18162;-39
2023/06/04 01:19:32;;;;;;;;;4.33;4.33;;;;;21.71;32.84;101527.34;112050;1247;20128;-39
2023/06/04 01:22:00;;;;;;;;;4.00;4.00;;;;;21.71;32.93;101529.04;112100;1247;20776;-39
2023/06/04 01:24:28;;;;;;;;;4.00;4.00;;;;;21.70;32.73;101525.23;112226;1263;20907;-40
2023/06/04 01:26:56;;;;;;;;;5.00;5.00;;;;;21.70;32.85;101525.15;112063;1263;19922;-39
2023/06/04 01:29:24;;;;;;;;;5.00;4.00;;;;;21.69;33.00;101532.27;112183;1263;20712;-39
2023/06/04 01:31:51;;;;;;;;;6.00;5.00;;;;;21.69;33.01;101528.10;111957;1263;19563;-39
2023/06/04 01:34:18;;;;;;;;;7.00;5.00;;;;;21.69;32.83;101528.16;112180;1263;20127;-39
2023/06/04 01:36:46;;;;;;;;;5.00;4.00;;;;;21.69;32.97;101530.69;112007;1263;19365;-39
2023/06/04 01:39:13;;;;;;;;;4.50;4.00;;;;;21.68;32.98;101530.93;112187;1263;18159;-42
2023/06/04 01:41:41;;;;;;;;;5.00;4.00;;;;;21.67;32.92;101533.63;112001;1247;20112;-44
2023/06/04 01:44:08;;;;;;;;;4.00;4.00;;;;;21.68;33.18;101536.83;112222;1263;19354;-39
2023/06/04 01:46:35;;;;;;;;;4.33;4.00;;;;;21.66;33.07;101535.15;112013;1257;19658;-39
2023/06/04 01:49:03;;;;;;;;;4.50;4.00;;;;;21.66;33.09;101537.04;112193;1263;21052;-39
2023/06/04 01:51:32;;;;;;;;;5.00;5.00;;;;;21.65;33.26;101536.52;111976;1263;20701;-39
2023/06/04 01:54:00;;;;;;;;;4.00;4.00;;;;;21.65;33.24;101535.29;112087;1263;19453;-39
2023/06/04 01:56:27;;;;;;;;;4.00;4.00;;;;;21.65;33.27;101536.77;112136;1263;20294;-40
2023/06/04 01:58:55;;;;;;;;;5.00;5.00;;;;;21.64;33.24;101539.57;112086;1263;20679;-40
2023/06/04 02:01:22;;;;;;;;;6.33;6.33;;;;;21.64;33.13;101537.25;112150;1251;19587;-39
2023/06/04 02:03:50;;;;;;;;;2.00;2.00;;;;;21.64;33.25;101538.71;112078;1263;18622;-39
2023/06/04 02:06:18;;;;;;;;;4.00;4.00;;;;;21.63;33.17;101537.31;112255;1263;20632;-41
2023/06/04 02:08:45;;;;;;;;;4.33;4.33;;;;;21.63;33.13;101536.77;112068;1263;19574;-39
2023/06/04 02:11:13;;;;;;;;;4.50;4.50;;;;;21.63;33.43;101538.98;112226;1263;18646;-40
2023/06/04 02:13:40;;;;;;;;;7.00;5.00;;;;;21.63;33.32;101538.98;112063;1247;20778;-39
2023/06/04 02:16:07;;;;;;;;;4.00;4.00;;;;;21.62;33.18;101537.23;112204;1247;20624;-41
2023/06/04 02:18:35;;;;;;;;;7.00;6.00;;;;;21.61;33.21;101535.13;112082;1247;20083;-39
2023/06/04 02:21:02;;;;;;;;;4.00;4.00;;;;;21.62;33.24;101534.17;112154;1247;20656;-39
2023/06/04 02:23:30;;;;;;;;;4.50;4.00;;;;;21.62;33.19;101534.17;112096;1248;19586;-39
2023/06/04 02:25:57;;;;;;;;;5.00;4.00;;;;;21.61;33.25;101531.92;111987;1247;21740;-40
2023/06/04 02:28:25;;;;;;;;;5.00;5.00;;;;;21.60;33.44;101533.25;112120;1248;20918;-40
2023/06/04 02:30:53;;;;;;;;;5.00;5.00;;;;;21.59;33.52;101533.19;112133;1247;19608;-39
2023/06/04 02:33:20;;;;;;;;;4.00;4.00;;;;;21.59;33.57;101534.83;112052;1263;19966;-38
2023/06/04 02:35:48;;;;;;;;;5.00;5.00;;;;;21.59;33.64;101533.94;112224;1263;20774;-40
2023/06/04 02:38:15;;;;;;;;;5.00;5.00;;;;;21.58;33.53;101531.02;112075;1263;18198;-39
2023/06/04 02:40:42;;;;;;;;;5.00;5.00;;;;;21.58;33.72;101531.64;112201;1247;18598;-39
2023/06/04 02:43:10;;;;;;;;;4.00;4.00;;;;;21.58;33.76;101534.39;112082;1263;19318;-39
2023/06/04 02:45:37;;;;;;;;;5.00;5.00;;;;;21.59;33.74;101537.03;112128;1263;19631;-39
2023/06/04 02:48:05;;;;;;;;;7.00;5.00;;;;;21.57;33.68;101532.06;112082;1247;20083;-39
2023/06/04 02:50:32;;;;;;;;;4.00;4.00;;;;;21.57;34.01;101536.04;112028;1263;20682;-39
2023/06/04 02:52:59;;;;;;;;;7.00;7.00;;;;;21.56;33.94;101534.52;112133;1263;19592;-39
2023/06/04 02:55:27;;;;;;;;;4.00;4.00;;;;;21.57;34.03;101531.02;111952;1263;18722;-41
2023/06/04 02:57:54;;;;;;;;;4.67;4.67;;;;;21.57;34.04;101536.30;112149;1247;19320;-39
2023/06/04 03:00:22;;;;;;;;;6.00;5.00;;;;;21.56;34.00;101533.49;111951;1255;20757;-39
2023/06/04 03:02:49;;;;;;;;;4.00;4.00;;;;;21.55;34.05;101533.40;112138;1263;19936;-39
2023/06/04 03:05:17;;;;;;;;;4.50;4.50;;;;;21.55;34.17;101533.94;111969;1247;20721;-39
2023/06/04 03:07:44;;;;;;;;;5.00;5.00;;;;;21.55;34.00;101531.97;112142;1248;19124;-39
2023/06/04 03:10:12;;;;;;;;;5.00;4.00;;;;;21.56;34.12;101530.94;111965;1263;18902;-39
2023/06/04 03:12:39;;;;;;;;;7.00;5.00;;;;;21.55;34.15;101534.86;112144;1247;21908;-40
2023/06/04 03:15:07;;;;;;;;;8.00;7.00;;;;;21.54;34.32;101532.92;111948;1263;19599;-41
2023/06/04 03:17:34;;;;;;;;;4.00;4.00;;;;;21.54;34.25;101537.02;112128;1256;18964;-40
2023/06/04 03:20:04;;;;;;;;;5.00;5.00;;;;;21.54;34.27;101536.05;111948;1256;19337;-40
2023/06/04 03:22:31;;;;;;;;;5.00;5.00;;;;;21.55;34.19;101540.70;111981;1263;18209;-42
2023/06/04 03:24:58;;;;;;;;;8.00;5.00;;;;;21.55;34.36;101535.81;112225;1263;19874;-40
2023/06/04 03:27:26;;;;;;;;;5.67;5.00;;;;;21.54;34.20;101538.20;111992;1263;20807;-40
2023/06/04 03:29:53;;;;;;;;;4.00;4.00;;;;;21.54;34.30;101531.73;112200;1247;21195;-40
2023/06/04 03:32:21;;;;;;;;;4.50;4.50;;;;;21.54;34.36;101528.85;111993;1263;18640;-40
2023/06/04 03:34:48;;;;;;;;;6.00;6.00;;;;;21.54;34.25;101526.61;112218;1247;20868;-40
2023/06/04 03:37:15;;;;;;;;;4.00;4.00;;;;;21.54;34.14;101528.61;112025;1255;19603;-40
2023/06/04 03:39:43;;;;;;;;;5.00;5.00;;;;;21.54;34.31;101529.14;112252;1256;18723;-40
2023/06/04 03:42:10;;;;;;;;;5.00;5.00;;;;;21.54;34.24;101529.68;112007;1256;21182;-39
2023/06/04 03:44:38;;;;;;;;;5.00;5.00;;;;;21.54;34.36;101529.91;112241;1263;18475;-39
2023/06/04 03:47:05;;;;;;;;;7.50;7.50;;;;;21.53;34.37;101530.88;112021;1263;18571;-39
2023/06/04 03:49:33;;;;;;;;;5.00;5.00;;;;;21.53;34.43;101533.43;112239;1263;20708;-42
2023/06/04 03:52:00;;;;;;;;;5.67;4.67;;;;;21.53;34.50;101531.97;112063;1263;19557;-39
2023/06/04 03:54:28;;;;;;;;;5.00;5.00;;;;;21.54;34.47;101530.09;112249;1257;19939;-39
2023/06/04 03:56:55;;;;;;;;;5.67;4.67;;;;;21.54;34.51;101528.29;112070;1263;20698;-40
2023/06/04 03:59:22;;;;;;;;;5.00;5.00;;;;;21.53;34.41;101529.20;112247;1247;18151;-39
2023/06/04 04:01:50;;;;;;;;;5.00;5.00;;;;;21.53;34.48;101528.89;112097;1263;19813;-40
2023/06/04 04:04:17;;;;;;;;;7.50;7.00;;;;;21.52;34.43;101529.70;112129;1256;19294;-41
2023/06/04 04:06:45;;;;;;;;;7.00;7.00;;;;;21.52;34.52;101527.95;112088;1263;18201;-39
2023/06/04 04:09:12;;;;;;;;;5.00;5.00;;;;;21.51;34.46;101530.77;112037;1263;18769;-39
2023/06/04 04:11:40;;;;;;;;;7.00;6.00;;;;;21.52;34.44;101529.34;112134;1247;20954;-39
2023/06/04 04:14:07;;;;;;;;;5.00;5.00;;;;;21.52;34.41;101523.94;112034;1263;18198;-39
2023/06/04 04:16:35;;;;;;;;;7.00;7.00;;;;;21.49;34.34;101521.13;112074;1263;21102;-44
2023/06/04 04:19:02;;;;;;;;;7.00;5.00;;;;;21.46;34.06;101521.18;111980;1263;19477;-39
2023/06/04 04:21:29;;;;;;;;;5.00;5.00;;;;;21.40;33.84;101523.25;112102;1263;18167;-40
2023/06/04 04:23:57;;;;;;;;;10.00;7.00;;;;;21.34;33.91;101518.87;111925;1263;21032;-39
2023/06/04 04:26:27;;;;;;;;;7.67;7.00;;;;;21.28;33.84;101517.17;112106;1256;19354;-39
2023/06/04 04:28:57;;;;;;;;;9.00;8.00;;;;;21.21;33.75;101520.09;112110;1247;21313;-39
2023/06/04 04:31:25;;;;;;;;;7.67;7.67;;;;;21.15;33.87;101525.42;112059;1263;18611;-39
2023/06/04 04:33:53;;;;;;;;;8.00;8.00;;;;;21.15;33.81;101518.58;112116;1263;20577;-39
2023/06/04 04:36:21;;;;;;;;;7.00;7.00;;;;;21.18;33.67;101520.60;111990;1263;18315;-39
2023/06/04 04:38:54;;;;;;;;;5.00;5.00;;;;;21.19;33.74;101517.39;112213;1263;18591;-39
2023/06/04 04:41:22;;;;;;;;;7.00;7.00;;;;;21.16;33.74;101520.23;111968;1263;19597;-42
2023/06/04 04:43:49;;;;;;;;;7.50;7.00;;;;;21.14;33.65;101516.33;112100;1256;19580;-39
2023/06/04 04:46:17;;;;;;;;;8.00;8.00;;;;;21.16;33.82;101516.64;111957;1263;18579;-40
2023/06/04 04:48:45;;;;;;;;;5.00;5.00;;;;;21.17;33.75;101513.81;112145;1247;19193;-39
2023/06/04 04:51:12;;;;;;;;;8.50;8.00;;;;;21.18;33.75;101518.26;112040;1247;19206;-39
2023/06/04 04:53:39;;;;;;;;;9.00;8.00;;;;;21.03;33.99;101515.06;112090;1263;20271;-39
2023/06/04 04:56:07;;;;;;;;;8.00;8.00;;;;;20.68;34.36;101519.77;111947;1247;20861;-42
2023/06/04 04:58:34;;;;;;;;;10.50;8.50;;;;;20.66;34.79;101518.02;112134;1247;20629;-39
2023/06/04 05:01:02;;;;;;;;;13.00;9.00;;;;;20.48;35.21;101514.37;111951;1248;20044;-39
2023/06/04 05:03:29;;;;;;;;;10.00;8.00;;;;;20.39;35.47;101515.27;112141;1247;20790;-39
2023/06/04 05:05:56;;;;;;;;;10.00;8.00;;;;;20.48;35.43;101515.48;111940;1263;18579;-39
2023/06/04 05:08:24;;;;;;;;;10.00;10.00;;;;;20.49;35.46;101520.79;112076;1247;18901;-39
2023/06/04 05:10:51;;;;;;;;;15.00;12.50;;;;;20.49;35.65;101525.70;111944;1247;20682;-39
2023/06/04 05:13:19;;;;;;;;;9.50;9.00;;;;;20.33;35.82;101528.06;112169;1247;20056;-39
2023/06/04 05:15:47;;;;;;;;;15.00;13.00;;;;;20.34;35.75;101531.94;111930;1263;18473;-40
2023/06/04 05:18:15;;;;;;;;;15.00;12.00;;;;;20.32;35.70;101529.83;112088;1263;19277;-39
2023/06/04 05:20:43;;;;;;;;;13.00;13.00;;;;;20.30;35.92;101528.52;112242;1263;20278;-40
2023/06/04 05:23:12;;;;;;;;;10.00;10.00;;;;;20.23;35.96;101537.26;112026;1263;18790;-39
2023/06/04 05:25:40;;;;;;;;;12.00;12.00;;;;;20.23;35.94;101541.57;112128;1247;20732;-39
2023/06/04 05:28:08;;;;;;;;;11.00;10.00;;;;;20.36;35.84;101536.80;112234;1263;18771;-42
2023/06/04 05:30:35;;;;;;;;;18.00;10.67;;;;;20.46;35.69;101540.73;112053;1263;18770;-39
2023/06/04 05:33:03;;;;;;;;;13.00;12.00;;;;;20.51;35.46;101540.27;112207;1263;20617;-40
2023/06/04 05:35:32;;;;;;;;;12.00;12.00;;;;;20.27;35.60;101540.77;112065;1263;18838;-39
2023/06/04 05:38:00;;;;;;;;;11.00;10.00;;;;;20.28;35.89;101548.16;112127;1263;20064;-39
2023/06/04 05:40:27;;;;;;;;;13.00;12.00;;;;;20.21;36.14;101544.69;112246;1256;19662;-41
2023/06/04 05:42:55;;;;;;;;;12.00;10.00;;;;;20.17;36.19;101545.30;112078;1263;18609;-39
2023/06/04 05:45:22;;;;;;;;;12.00;12.00;;;;;20.13;36.20;101542.05;112178;1263;18725;-39
2023/06/04 05:47:50;;;;;;;;;13.00;12.00;;;;;20.22;36.31;101543.16;112086;1263;19351;-39
2023/06/04 05:50:17;;;;;;;;;12.50;12.00;;;;;20.14;36.30;101543.05;112085;1247;21398;-39
2023/06/04 05:52:45;;;;;;;;;12.00;10.00;;;;;20.20;36.27;101543.03;112115;1263;19000;-39
2023/06/04 05:55:12;;;;;;;;;10.00;9.00;;;;;20.27;36.16;101543.52;112011;1247;20781;-39
2023/06/04 05:57:39;;;;;;;;;7.00;7.00;;;;;20.20;36.45;101548.98;112109;1247;21615;-39
2023/06/04 06:00:10;;;;;;;;;7.00;7.00;;;;;20.21;36.35;101551.01;111981;1263;19948;-40
2023/06/04 06:02:38;;;;;;;;;10.00;9.00;;;;;20.21;36.42;101550.16;112229;1247;19428;-40
2023/06/04 06:05:07;;;;;;;;;9.00;7.00;;;;;20.27;36.48;101553.92;111963;1263;19735;-39
2023/06/04 06:07:34;;;;;;;;;10.00;10.00;;;;;20.24;36.65;101552.21;112087;1263;18613;-38
2023/06/04 06:10:02;;;;;;;;;12.00;10.00;;;;;20.34;36.52;101556.33;111958;1247;21051;-39
2023/06/04 06:12:30;;;;;;;;;9.00;9.00;;;;;20.33;36.88;101554.34;112102;1263;18772;-39
2023/06/04 06:14:57;;;;;;;;;7.67;6.00;;;;;20.40;36.73;101554.41;111988;1249;20159;-39
2023/06/04 06:17:25;;;;;;;;;10.00;8.33;;;;;20.53;36.67;101558.00;112128;1263;19317;-39
2023/06/04 06:19:53;;;;;;;;;8.33;7.00;;;;;20.86;36.66;101555.52;112133;1256;18717;-38
2023/06/04 06:22:20;;;;;;;;;7.00;7.00;;;;;21.15;36.70;101554.02;112004;1263;20007;-38
2023/06/04 06:24:48;;;;;;;;;6.00;6.00;;;;;21.31;36.54;101556.83;112214;1256;19351;-38
2023/06/04 06:27:16;;;;;;;;;7.00;7.00;;;;;21.42;36.52;101553.69;112024;1263;19949;-37
2023/06/04 06:29:43;;;;;;;;;5.00;5.00;;;;;21.50;36.42;101553.52;112204;1248;21212;-38
2023/06/04 06:32:11;;;;;;;;;6.33;5.67;;;;;21.55;36.27;101551.73;112055;1263;20658;-38
2023/06/04 06:34:38;;;;;;;;;5.00;5.00;;;;;21.60;36.47;101556.02;112240;1263;18169;-39
2023/06/04 06:37:05;;;;;;;;;7.00;7.00;;;;;21.64;36.29;101556.18;112013;1256;20319;-39
2023/06/04 06:39:33;;;;;;;;;7.00;7.00;;;;;21.69;36.39;101565.73;112224;1248;21164;-38
2023/06/04 06:42:00;;;;;;;;;4.00;4.00;;;;;21.73;36.44;101565.54;112043;1263;19419;-38
2023/06/04 06:44:28;;;;;;;;;4.00;4.00;;;;;21.77;36.65;101568.05;112220;1264;18568;-38
2023/06/04 06:46:56;;;;;;;;;7.50;6.00;;;;;21.81;36.84;101568.83;112037;1257;19685;-39
2023/06/04 06:49:23;;;;;;;;;5.00;5.00;;;;;21.88;37.65;101570.14;112221;1263;18341;-39
2023/06/04 06:51:51;;;;;;;;;4.00;4.00;;;;;21.90;38.08;101569.91;112027;1263;20249;-39
2023/06/04 06:54:21;;;;;;;;;7.00;5.00;;;;;21.94;38.20;101570.23;112200;1263;20586;-39
2023/06/04 06:56:49;;;;;;;;;3.33;3.33;;;;;21.96;38.40;101567.75;112161;1248;20592;-38
2023/06/04 06:59:16;;;;;;;;;5.00;4.00;;;;;21.96;38.50;101564.17;111964;1248;20062;-37
2023/06/04 07:01:44;;;;;;;;;4.00;4.00;;;;;21.96;38.50;101568.67;112163;1263;20740;-40
2023/06/04 07:04:11;;;;;;;;;5.00;5.00;;;;;21.99;38.31;101569.77;111963;1248;19612;-38
2023/06/04 07:06:39;;;;;;;;;10.00;7.00;;;;;22.03;38.34;101568.83;112132;1248;20063;-39
2023/06/04 07:09:07;;;;;;;;;51.50;39.00;;;;;22.10;38.37;101567.71;111927;1248;21034;-40
2023/06/04 07:11:34;;;;;;;;;41.00;32.00;;;;;22.11;38.43;101572.30;112123;1248;18909;-39
2023/06/04 07:14:02;;;;;;;;;42.00;36.00;;;;;22.09;38.43;101571.46;111936;1257;20362;-37
2023/06/04 07:16:30;;;;;;;;;50.50;40.50;;;;;22.10;38.22;101576.42;112086;1248;19426;-39
2023/06/04 07:18:57;;;;;;;;;71.67;49.00;;;;;22.10;38.24;101572.45;112156;1248;18761;-40
2023/06/04 07:21:25;;;;;;;;;64.50;48.50;;;;;22.18;38.07;101568.58;112045;1263;18680;-39
2023/06/04 07:23:52;;;;;;;;;68.50;52.50;;;;;22.20;38.02;101566.70;112107;1263;21303;-39
2023/06/04 07:26:20;;;;;;;;;80.50;63.00;;;;;22.21;37.92;101559.61;112108;1263;18529;-42
2023/06/04 07:28:47;;;;;;;;;74.00;57.00;;;;;22.25;38.22;101555.59;112075;1263;20309;-39
2023/06/04 07:31:14;;;;;;;;;71.00;55.00;;;;;22.26;37.95;101557.89;112068;1263;20894;-41
2023/06/04 07:33:43;;;;;;;;;39.00;32.50;;;;;22.23;37.90;101560.02;111941;1248;20260;-40
2023/06/04 07:36:11;;;;;;;;;23.00;18.00;;;;;22.14;36.31;101557.86;111993;1263;18698;-41
2023/06/04 07:38:38;;;;;;;;;24.33;17.33;;;;;22.08;34.30;101557.81;112221;1256;21157;-40
2023/06/04 07:41:05;;;;;;;;;13.00;12.00;;;;;21.96;33.38;101558.38;112025;1263;18554;-40
2023/06/04 07:43:33;;;;;;;;;11.00;10.00;;;;;21.88;32.33;101559.94;112217;1256;18928;-40
2023/06/04 07:46:00;;;;;;;;;7.50;7.50;;;;;21.93;31.67;101555.93;112045;1248;21987;-40
2023/06/04 07:48:30;;;;;;;;;7.00;7.00;;;;;22.09;30.94;101557.61;112217;1263;19898;-41
2023/06/04 07:50:57;;;;;;;;;4.00;4.00;;;;;22.12;30.26;101556.67;112216;1263;20422;-43
2023/06/04 07:53:25;;;;;;;;;5.00;5.00;;;;;21.98;30.19;101553.16;112053;1263;21007;-40
2023/06/04 07:55:53;;;;;;;;;4.50;4.00;;;;;21.82;29.88;101553.27;112220;1248;19781;-40
2023/06/04 07:58:20;;;;;;;;;4.00;4.00;;;;;21.75;30.35;101552.73;112001;1248;21328;-40
2023/06/04 08:00:48;;;;;;;;;4.00;4.00;;;;;21.87;30.40;101550.86;112240;1248;20802;-40
2023/06/04 08:03:15;;;;;;;;;3.00;3.00;;;;;22.04;30.50;101547.93;112056;1248;19703;-40
2023/06/04 08:05:43;;;;;;;;;4.00;4.00;;;;;22.13;30.88;101547.95;112225;1248;20031;-40
2023/06/04 08:08:10;;;;;;;;;4.00;4.00;;;;;22.37;30.66;101551.37;112036;1263;19396;-39
2023/06/04 08:10:38;;;;;;;;;2.67;2.67;;;;;22.12;29.89;101554.28;112206;1263;19546;-40
2023/06/04 08:13:05;;;;;;;;;6.00;6.00;;;;;21.80;29.52;101551.86;112047;1248;21439;-40
2023/06/04 08:15:33;;;;;;;;;5.00;5.00;;;;;21.78;29.65;101549.84;112238;1248;20770;-41
2023/06/04 08:18:00;;;;;;;;;5.00;5.00;;;;;21.86;29.63;101553.14;112039;1263;19512;-39
2023/06/04 08:20:27;;;;;;;;;4.00;4.00;;;;;21.97;29.50;101549.61;112214;1263;18696;-40
2023/06/04 08:22:55;;;;;;;;;4.00;4.00;;;;;22.02;29.50;101548.86;112035;1263;19344;-38
2023/06/04 08:25:22;;;;;;;;;3.50;3.00;;;;;22.02;29.64;101543.41;112169;1263;18227;-39
2023/06/04 08:27:50;;;;;;;;;4.00;4.00;;;;;22.00;29.46;101544.19;112045;1263;20290;-39
2023/06/04 08:30:17;;;;;;;;;4.00;4.00;;;;;22.17;29.47;101539.39;112179;1249;20595;-39
2023/06/04 08:32:45;;;;;;;;;4.00;4.00;;;;;22.12;29.28;101542.20;112035;1263;18787;-39
2023/06/04 08:35:12;;;;;;;;;4.00;4.00;;;;;22.03;29.10;101539.55;112032;1248;20086;-39
2023/06/04 08:37:39;;;;;;;;;5.00;4.00;;;;;22.14;28.69;101530.61;112126;1256;20973;-39
2023/06/04 08:40:08;;;;;;;;;4.33;4.00;;;;;22.13;28.94;101535.41;111948;1264;19536;-39
2023/06/04 08:42:36;;;;;;;;;2.00;2.00;;;;;22.22;28.57;101533.31;111997;1248;20483;-39
2023/06/04 08:45:03;;;;;;;;;2.00;2.00;;;;;22.19;28.81;101533.86;112199;1248;20773;-39
2023/06/04 08:47:31;;;;;;;;;2.00;2.00;;;;;22.10;29.13;101535.70;111980;1248;19972;-39
2023/06/04 08:49:58;;;;;;;;;4.00;4.00;;;;;22.04;29.06;101535.77;112191;1264;19955;-39
2023/06/04 08:52:26;;;;;;;;;2.00;2.00;;;;;22.14;28.81;101531.94;112037;1256;19320;-38
2023/06/04 08:54:53;;;;;;;;;4.00;4.00;;;;;22.04;28.97;101534.34;112177;1263;19550;-38
2023/06/04 08:57:21;;;;;;;;;5.00;5.00;;;;;22.05;29.18;101530.04;112017;1263;19868;-39
2023/06/04 08:59:48;;;;;;;;;4.00;4.00;;;;;22.11;29.03;101532.88;112190;1263;19539;-38
2023/06/04 09:02:16;;;;;;;;;4.50;4.00;;;;;22.14;29.12;101531.29;111972;1264;20644;-38
2023/06/04 09:04:43;;;;;;;;;2.00;2.00;;;;;22.11;28.92;101531.73;112190;1248;20046;-38
2023/06/04 09:07:11;;;;;;;;;5.00;4.67;;;;;22.06;29.01;101533.57;112006;1248;20765;-42
2023/06/04 09:09:38;;;;;;;;;5.00;5.00;;;;;22.12;28.98;101529.67;112195;1264;19501;-38
2023/06/04 09:12:06;;;;;;;;;4.00;4.00;;;;;22.44;29.07;101525.44;112002;1263;20268;-39
2023/06/04 09:14:33;;;;;;;;;5.00;4.00;;;;;22.48;28.71;101524.61;112205;1248;21941;-39
2023/06/04 09:17:00;;;;;;;;;4.00;4.00;;;;;22.54;28.60;101528.94;112011;1264;19473;-38
2023/06/04 09:19:28;;;;;;;;;4.00;4.00;;;;;22.48;28.60;101530.77;112210;1263;18636;-39
2023/06/04 09:21:55;;;;;;;;;4.00;4.00;;;;;22.30;28.84;101530.98;112053;1264;19323;-39
2023/06/04 09:24:23;;;;;;;;;3.33;3.33;;;;;22.20;28.93;101531.38;112208;1263;19565;-39
2023/06/04 09:26:50;;;;;;;;;2.00;2.00;;;;;22.12;28.94;101527.83;112045;1248;20031;-39
2023/06/04 09:29:18;;;;;;;;;4.00;4.00;;;;;22.17;28.81;101522.55;112239;1248;20990;-40
2023/06/04 09:31:46;;;;;;;;;2.00;2.00;;;;;22.18;28.82;101521.92;112033;1248;21301;-39
2023/06/04 09:34:14;;;;;;;;;2.00;2.00;;;;;22.18;29.12;101525.20;112167;1263;19985;-39
2023/06/04 09:36:41;;;;;;;;;4.00;4.00;;;;;22.15;29.25;101524.26;111941;1264;20753;-39
2023/06/04 09:39:08;;;;;;;;;4.00;4.00;;;;;22.04;29.05;101516.25;112174;1248;18144;-40
2023/06/04 09:41:36;;;;;;;;;3.33;3.33;;;;;22.02;29.09;101508.33;112011;1263;18817;-39
2023/06/04 09:44:03;;;;;;;;;4.00;4.00;;;;;22.07;28.93;101507.02;112201;1248;20634;-37
2023/06/04 09:46:31;;;;;;;;;4.00;2.00;;;;;22.25;28.85;101509.84;111987;1248;20741;-38
2023/06/04 09:48:59;;;;;;;;;3.00;3.00;;;;;22.29;28.86;101504.86;112149;1263;18655;-38
2023/06/04 09:51:26;;;;;;;;;5.00;5.00;;;;;22.30;28.68;101511.64;111967;1248;20936;-38
2023/06/04 09:53:53;;;;;;;;;2.00;2.00;;;;;22.26;28.88;101511.84;112166;1263;19530;-38
2023/06/04 09:56:21;;;;;;;;;5.00;4.00;;;;;22.19;29.12;101511.60;112009;1248;20022;-38
2023/06/04 09:58:48;;;;;;;;;3.33;3.33;;;;;22.17;29.18;101514.77;112210;1248;19495;-38
2023/06/04 10:01:16;;;;;;;;;4.00;2.00;;;;;22.15;29.37;101515.66;111983;1264;18522;-42
2023/06/04 10:03:43;;;;;;;;;4.00;4.00;;;;;22.11;29.58;101511.91;112176;1263;20171;-39
2023/06/04 10:06:11;;;;;;;;;5.00;4.50;;;;;22.16;29.40;101510.01;111985;1248;20755;-38
2023/06/04 10:08:38;;;;;;;;;3.33;2.00;;;;;22.24;29.17;101511.06;112207;1248;19638;-38
2023/06/04 10:11:06;;;;;;;;;3.00;3.00;;;;;22.40;29.22;101510.98;112012;1263;18623;-38
2023/06/04 10:13:33;;;;;;;;;3.00;2.00;;;;;22.42;29.22;101512.16;112196;1248;23454;-38
2023/06/04 10:16:01;;;;;;;;;5.00;4.00;;;;;22.52;29.18;101505.84;112015;1263;19541;-38
2023/06/04 10:18:28;;;;;;;;;4.00;4.00;;;;;22.54;28.94;101511.58;112217;1248;18741;-38
2023/06/04 10:20:56;;;;;;;;;2.00;2.00;;;;;22.52;29.24;101510.52;111998;1256;20776;-38
2023/06/04 10:23:23;;;;;;;;;4.00;4.00;;;;;22.38;29.21;101517.17;112192;1248;19953;-39
2023/06/04 10:25:52;;;;;;;;;2.00;2.00;;;;;22.27;29.25;101512.17;112021;1251;20187;-39
2023/06/04 10:28:20;;;;;;;;;4.00;4.00;;;;;22.26;29.20;101514.10;112117;1263;20986;-39
2023/06/04 10:30:50;;;;;;;;;4.00;4.00;;;;;22.38;29.06;101511.88;111965;1248;20717;-38
2023/06/04 10:33:17;;;;;;;;;5.00;5.00;;;;;22.32;29.23;101517.64;112110;1263;20188;-38
2023/06/04 10:35:45;;;;;;;;;2.00;2.00;;;;;22.22;29.15;101504.59;112084;1263;21841;-38
2023/06/04 10:38:13;;;;;;;;;4.67;4.67;;;;;22.27;29.18;101508.95;111993;1263;18835;-38
2023/06/04 10:40:40;;;;;;;;;4.00;4.00;;;;;22.35;29.27;101505.80;112012;1263;20271;-42
2023/06/04 10:43:08;;;;;;;;;4.00;4.00;;;;;22.26;29.20;101505.20;112201;1256;19552;-38
2023/06/04 10:45:35;;;;;;;;;2.00;2.00;;;;;22.15;29.33;101508.40;112048;1248;19531;-38
2023/06/04 10:48:03;;;;;;;;;3.00;3.00;;;;;22.15;29.75;101501.90;112175;1263;20311;-38
2023/06/04 10:50:30;;;;;;;;;4.67;3.33;;;;;22.22;30.52;101500.19;112050;1264;20642;-38
2023/06/04 10:52:58;;;;;;;;;4.50;4.00;;;;;22.24;30.48;101498.48;112230;1263;18319;-39
2023/06/04 10:55:25;;;;;;;;;5.00;4.00;;;;;22.24;30.50;101494.89;112004;1264;18595;-38
2023/06/04 10:57:53;;;;;;;;;4.00;4.00;;;;;22.36;30.26;101497.30;112222;1248;21020;-39
2023/06/04 11:00:21;;;;;;;;;4.00;4.00;;;;;22.45;30.35;101492.86;112006;1251;19839;-38
2023/06/04 11:02:48;;;;;;;;;3.00;3.00;;;;;22.59;30.22;101489.55;112180;1263;20098;-39
2023/06/04 11:05:16;;;;;;;;;4.00;4.00;;;;;22.52;29.75;101495.26;112025;1248;20920;-38
2023/06/04 11:07:44;;;;;;;;;2.00;2.00;;;;;22.44;29.77;101496.73;112191;1263;19523;-39
2023/06/04 11:10:12;;;;;;;;;4.00;4.00;;;;;22.31;29.53;101502.52;111919;1248;20315;-38
2023/06/04 11:12:39;;;;;;;;;4.00;4.00;;;;;22.20;29.56;101500.61;112119;1248;20768;-38
2023/06/04 11:15:07;;;;;;;;;5.00;5.00;;;;;22.18;29.78;101496.48;111933;1248;19679;-39